sensor_id;sensor_type;location;lat;lon;timestamp;P1;durP1;ratioP1;P2;durP2;ratioP2
21251;SDS011;10784;50.578;17.878;2022-12-07T07:11:19;15.55;;;7.15;;
21251;SDS011;10784;50.578;17.878;2022-12-07T07:13:52;19.08;;;6.35;;
21251;SDS011;10784;50.578;17.878;2022-12-07T07:16:26;17.70;;;6.75;;
21251;SDS011;10784;50.578;17.878;2022-12-07T07:18:59;11.48;;;5.60;;
21251;SDS011;10784;50.578;17.878;2022-12-07T07:21:31;17.85;;;7.25;;
21251;SDS011;10784;50.578;17.878;2022-12-07T07:24:04;9.90;;;5.40;;
21251;SDS011;10784;50.578;17.878;2022-12-07T07:26:38;19.13;;;6.35;;
21251;SDS011;10784;50.578;17.878;2022-12-07T07:29:12;17.25;;;7.88;;
21251;SDS011;10784;50.578;17.878;2022-12-07T07:31:45;8.05;;;4.53;;
21251;SDS011;10784;50.578;17.878;2022-12-07T07:34:18;6.80;;;3.78;;
21251;SDS011;10784;50.578;17.878;2022-12-07T07:36:51;9.70;;;4.13;;
21251;SDS011;10784;50.578;17.878;2022-12-07T07:39:24;15.32;;;4.30;;
21251;SDS011;10784;50.578;17.878;2022-12-07T07:41:58;6.75;;;3.95;;
21251;SDS011;10784;50.578;17.878;2022-12-07T07:44:32;5.70;;;3.88;;
21251;SDS011;10784;50.578;17.878;2022-12-07T07:47:06;7.95;;;3.50;;
21251;SDS011;10784;50.578;17.878;2022-12-07T07:49:39;8.57;;;4.85;;
21251;SDS011;10784;50.578;17.878;2022-12-07T07:52:19;9.82;;;3.00;;
21251;SDS011;10784;50.578;17.878;2022-12-07T07:54:52;17.35;;;7.00;;
21251;SDS011;10784;50.578;17.878;2022-12-07T07:57:25;17.02;;;8.05;;
21251;SDS011;10784;50.578;17.878;2022-12-07T07:59:58;9.00;;;5.00;;
21251;SDS011;10784;50.578;17.878;2022-12-07T08:02:31;12.65;;;5.45;;
21251;SDS011;10784;50.578;17.878;2022-12-07T08:05:04;7.38;;;3.30;;
21251;SDS011;10784;50.578;17.878;2022-12-07T08:07:37;7.72;;;4.28;;
21251;SDS011;10784;50.578;17.878;2022-12-07T08:10:11;9.77;;;4.25;;
21251;SDS011;10784;50.578;17.878;2022-12-07T08:12:43;8.48;;;3.55;;
21251;SDS011;10784;50.578;17.878;2022-12-07T08:15:35;3.47;;;2.53;;
21251;SDS011;10784;50.578;17.878;2022-12-07T08:18:08;4.75;;;2.30;;
21251;SDS011;10784;50.578;17.878;2022-12-07T08:20:41;4.95;;;2.78;;
21251;SDS011;10784;50.578;17.878;2022-12-07T08:23:14;6.32;;;4.07;;
21251;SDS011;10784;50.578;17.878;2022-12-07T08:25:47;4.03;;;2.88;;
21251;SDS011;10784;50.578;17.878;2022-12-07T08:28:20;3.40;;;2.47;;
21251;SDS011;10784;50.578;17.878;2022-12-07T08:30:58;5.32;;;2.53;;
21251;SDS011;10784;50.578;17.878;2022-12-07T08:33:31;8.43;;;2.47;;
21251;SDS011;10784;50.578;17.878;2022-12-07T08:36:05;19.08;;;5.93;;
21251;SDS011;10784;50.578;17.878;2022-12-07T08:38:39;9.55;;;4.80;;
21251;SDS011;10784;50.578;17.878;2022-12-07T08:41:22;24.48;;;6.57;;
21251;SDS011;10784;50.578;17.878;2022-12-07T08:43:56;6.45;;;4.13;;
21251;SDS011;10784;50.578;17.878;2022-12-07T08:49:13;8.90;;;2.65;;
21251;SDS011;10784;50.578;17.878;2022-12-07T08:51:47;4.80;;;2.45;;
21251;SDS011;10784;50.578;17.878;2022-12-07T08:54:20;4.05;;;2.22;;
21251;SDS011;10784;50.578;17.878;2022-12-07T08:56:53;9.50;;;2.35;;
21251;SDS011;10784;50.578;17.878;2022-12-07T08:59:30;11.73;;;4.22;;
21251;SDS011;10784;50.578;17.878;2022-12-07T09:02:05;6.00;;;2.60;;
21251;SDS011;10784;50.578;17.878;2022-12-07T09:04:38;7.32;;;3.20;;
21251;SDS011;10784;50.578;17.878;2022-12-07T09:07:11;4.90;;;2.60;;
21251;SDS011;10784;50.578;17.878;2022-12-07T09:09:44;4.63;;;2.40;;
21251;SDS011;10784;50.578;17.878;2022-12-07T09:12:17;7.93;;;3.17;;
21251;SDS011;10784;50.578;17.878;2022-12-07T09:14:49;4.93;;;2.38;;
21251;SDS011;10784;50.578;17.878;2022-12-07T09:17:22;1.88;;;1.60;;
21251;SDS011;10784;50.578;17.878;2022-12-07T09:19:55;3.20;;;2.13;;
21251;SDS011;10784;50.578;17.878;2022-12-07T09:22:29;4.28;;;2.10;;
21251;SDS011;10784;50.578;17.878;2022-12-07T09:25:02;3.45;;;1.92;;
21251;SDS011;10784;50.578;17.878;2022-12-07T09:27:36;4.32;;;2.58;;
21251;SDS011;10784;50.578;17.878;2022-12-07T09:30:08;2.70;;;2.10;;
21251;SDS011;10784;50.578;17.878;2022-12-07T09:32:41;6.25;;;2.83;;
21251;SDS011;10784;50.578;17.878;2022-12-07T09:35:14;5.50;;;2.42;;
21251;SDS011;10784;50.578;17.878;2022-12-07T09:37:47;13.50;;;4.25;;
21251;SDS011;10784;50.578;17.878;2022-12-07T09:40:20;5.85;;;2.92;;
21251;SDS011;10784;50.578;17.878;2022-12-07T09:42:54;5.82;;;2.75;;
21251;SDS011;10784;50.578;17.878;2022-12-07T09:45:32;8.13;;;2.97;;
21251;SDS011;10784;50.578;17.878;2022-12-07T09:48:09;15.27;;;4.97;;
21251;SDS011;10784;50.578;17.878;2022-12-07T09:50:47;10.43;;;4.60;;
21251;SDS011;10784;50.578;17.878;2022-12-07T09:53:23;12.20;;;4.43;;
21251;SDS011;10784;50.578;17.878;2022-12-07T09:55:56;5.78;;;2.75;;
21251;SDS011;10784;50.578;17.878;2022-12-07T09:58:29;6.03;;;2.42;;
21251;SDS011;10784;50.578;17.878;2022-12-07T10:03:39;5.75;;;2.60;;
21251;SDS011;10784;50.578;17.878;2022-12-07T10:06:12;10.25;;;4.25;;
21251;SDS011;10784;50.578;17.878;2022-12-07T10:08:46;9.48;;;4.22;;
21251;SDS011;10784;50.578;17.878;2022-12-07T10:11:19;13.82;;;3.78;;
21251;SDS011;10784;50.578;17.878;2022-12-07T10:13:52;7.90;;;4.05;;
21251;SDS011;10784;50.578;17.878;2022-12-07T10:16:35;9.55;;;4.72;;
21251;SDS011;10784;50.578;17.878;2022-12-07T10:22:10;9.48;;;4.90;;
21251;SDS011;10784;50.578;17.878;2022-12-07T10:24:45;9.23;;;5.40;;
21251;SDS011;10784;50.578;17.878;2022-12-07T10:27:20;6.03;;;3.75;;
21251;SDS011;10784;50.578;17.878;2022-12-07T10:29:54;10.35;;;4.35;;
21251;SDS011;10784;50.578;17.878;2022-12-07T10:32:29;8.07;;;4.38;;
21251;SDS011;10784;50.578;17.878;2022-12-07T10:37:57;8.93;;;3.92;;
21251;SDS011;10784;50.578;17.878;2022-12-07T10:40:35;5.90;;;2.97;;
21251;SDS011;10784;50.578;17.878;2022-12-07T10:46:07;4.55;;;2.53;;
21251;SDS011;10784;50.578;17.878;2022-12-07T10:54:12;3.85;;;2.20;;
21251;SDS011;10784;50.578;17.878;2022-12-07T11:05:14;6.97;;;3.67;;
21251;SDS011;10784;50.578;17.878;2022-12-07T11:07:56;6.97;;;2.33;;
21251;SDS011;10784;50.578;17.878;2022-12-07T11:10:46;4.43;;;2.03;;
21251;SDS011;10784;50.578;17.878;2022-12-07T11:13:44;5.80;;;2.55;;
21251;SDS011;10784;50.578;17.878;2022-12-07T11:16:32;5.80;;;2.72;;
21251;SDS011;10784;50.578;17.878;2022-12-07T11:21:52;4.00;;;2.15;;
21251;SDS011;10784;50.578;17.878;2022-12-07T11:29:55;3.47;;;2.65;;
21251;SDS011;10784;50.578;17.878;2022-12-07T11:37:47;4.10;;;2.05;;
21251;SDS011;10784;50.578;17.878;2022-12-07T11:40:33;4.03;;;2.60;;
21251;SDS011;10784;50.578;17.878;2022-12-07T11:43:13;1.85;;;1.52;;
21251;SDS011;10784;50.578;17.878;2022-12-07T11:46:11;3.90;;;1.98;;
21251;SDS011;10784;50.578;17.878;2022-12-07T11:51:16;5.78;;;3.08;;
21251;SDS011;10784;50.578;17.878;2022-12-07T11:54:11;2.45;;;2.15;;
21251;SDS011;10784;50.578;17.878;2022-12-07T11:56:45;7.45;;;3.70;;
21251;SDS011;10784;50.578;17.878;2022-12-07T11:59:23;5.88;;;2.83;;
21251;SDS011;10784;50.578;17.878;2022-12-07T12:01:58;5.43;;;3.42;;
21251;SDS011;10784;50.578;17.878;2022-12-07T12:04:47;5.78;;;3.42;;
21251;SDS011;10784;50.578;17.878;2022-12-07T12:07:23;7.05;;;2.55;;
21251;SDS011;10784;50.578;17.878;2022-12-07T12:10:18;4.30;;;2.53;;
21251;SDS011;10784;50.578;17.878;2022-12-07T12:12:55;2.90;;;2.22;;
21251;SDS011;10784;50.578;17.878;2022-12-07T12:18:32;7.47;;;2.95;;
21251;SDS011;10784;50.578;17.878;2022-12-07T12:21:11;19.95;;;3.63;;
21251;SDS011;10784;50.578;17.878;2022-12-07T12:23:48;10.75;;;4.10;;
21251;SDS011;10784;50.578;17.878;2022-12-07T12:26:24;3.25;;;2.00;;
21251;SDS011;10784;50.578;17.878;2022-12-07T12:29:02;2.65;;;1.85;;
21251;SDS011;10784;50.578;17.878;2022-12-07T12:31:39;3.15;;;2.22;;
21251;SDS011;10784;50.578;17.878;2022-12-07T12:34:30;12.13;;;3.13;;
21251;SDS011;10784;50.578;17.878;2022-12-07T12:37:03;3.58;;;2.30;;
21251;SDS011;10784;50.578;17.878;2022-12-07T12:40:12;4.90;;;2.55;;
21251;SDS011;10784;50.578;17.878;2022-12-07T12:42:48;2.85;;;2.35;;
21251;SDS011;10784;50.578;17.878;2022-12-07T12:47:58;3.95;;;2.45;;
21251;SDS011;10784;50.578;17.878;2022-12-07T12:50:37;6.22;;;2.92;;
21251;SDS011;10784;50.578;17.878;2022-12-07T12:53:14;5.15;;;2.22;;
21251;SDS011;10784;50.578;17.878;2022-12-07T12:56:11;4.80;;;2.20;;
21251;SDS011;10784;50.578;17.878;2022-12-07T12:58:41;3.45;;;2.45;;
21251;SDS011;10784;50.578;17.878;2022-12-07T13:04:01;6.43;;;3.50;;
21251;SDS011;10784;50.578;17.878;2022-12-07T13:06:35;5.93;;;2.83;;
21251;SDS011;10784;50.578;17.878;2022-12-07T13:09:26;4.20;;;3.03;;
21251;SDS011;10784;50.578;17.878;2022-12-07T13:12:11;3.70;;;2.00;;
21251;SDS011;10784;50.578;17.878;2022-12-07T13:14:55;3.80;;;2.47;;
21251;SDS011;10784;50.578;17.878;2022-12-07T13:20:05;5.07;;;2.50;;
21251;SDS011;10784;50.578;17.878;2022-12-07T13:22:48;3.78;;;2.20;;
21251;SDS011;10784;50.578;17.878;2022-12-07T13:25:28;4.70;;;1.80;;
21251;SDS011;10784;50.578;17.878;2022-12-07T13:28:23;3.80;;;1.90;;
21251;SDS011;10784;50.578;17.878;2022-12-07T13:33:32;2.33;;;1.42;;
21251;SDS011;10784;50.578;17.878;2022-12-07T13:36:10;2.42;;;1.75;;
21251;SDS011;10784;50.578;17.878;2022-12-07T13:38:49;4.35;;;2.10;;
21251;SDS011;10784;50.578;17.878;2022-12-07T13:41:23;6.03;;;2.17;;
21251;SDS011;10784;50.578;17.878;2022-12-07T13:44:05;5.00;;;2.60;;
21251;SDS011;10784;50.578;17.878;2022-12-07T13:49:28;2.55;;;1.60;;
21251;SDS011;10784;50.578;17.878;2022-12-07T13:52:13;5.70;;;2.08;;
21251;SDS011;10784;50.578;17.878;2022-12-07T13:57:33;4.53;;;3.40;;
21251;SDS011;10784;50.578;17.878;2022-12-07T14:00:18;14.48;;;5.20;;
21251;SDS011;10784;50.578;17.878;2022-12-07T14:03:01;9.15;;;4.43;;
21251;SDS011;10784;50.578;17.878;2022-12-07T14:05:35;5.60;;;3.35;;
21251;SDS011;10784;50.578;17.878;2022-12-07T14:10:53;3.30;;;2.83;;
21251;SDS011;10784;50.578;17.878;2022-12-07T14:13:33;8.43;;;3.00;;
21251;SDS011;10784;50.578;17.878;2022-12-07T14:16:24;5.72;;;2.40;;
21251;SDS011;10784;50.578;17.878;2022-12-07T14:18:59;3.28;;;1.65;;
21251;SDS011;10784;50.578;17.878;2022-12-07T14:21:34;1.85;;;1.23;;
21251;SDS011;10784;50.578;17.878;2022-12-07T14:24:16;4.80;;;2.10;;
21251;SDS011;10784;50.578;17.878;2022-12-07T14:26:50;5.40;;;2.00;;
21251;SDS011;10784;50.578;17.878;2022-12-07T14:34:53;4.30;;;2.88;;
21251;SDS011;10784;50.578;17.878;2022-12-07T14:37:27;3.33;;;2.30;;
21251;SDS011;10784;50.578;17.878;2022-12-07T14:40:00;7.85;;;2.65;;
21251;SDS011;10784;50.578;17.878;2022-12-07T14:42:33;2.92;;;2.42;;
21251;SDS011;10784;50.578;17.878;2022-12-07T14:45:10;4.47;;;2.60;;
21251;SDS011;10784;50.578;17.878;2022-12-07T14:47:45;5.82;;;3.30;;
21251;SDS011;10784;50.578;17.878;2022-12-07T14:50:41;3.85;;;3.22;;
21251;SDS011;10784;50.578;17.878;2022-12-07T14:53:35;6.95;;;2.83;;
21251;SDS011;10784;50.578;17.878;2022-12-07T14:56:09;3.85;;;2.92;;
21251;SDS011;10784;50.578;17.878;2022-12-07T14:58:42;6.32;;;2.85;;
21251;SDS011;10784;50.578;17.878;2022-12-07T15:01:15;7.63;;;2.88;;
21251;SDS011;10784;50.578;17.878;2022-12-07T15:03:48;5.30;;;2.40;;
21251;SDS011;10784;50.578;17.878;2022-12-07T15:06:21;6.47;;;2.60;;
21251;SDS011;10784;50.578;17.878;2022-12-07T15:08:54;8.30;;;3.05;;
21251;SDS011;10784;50.578;17.878;2022-12-07T15:11:27;7.05;;;3.67;;
21251;SDS011;10784;50.578;17.878;2022-12-07T15:14:07;4.10;;;2.72;;
21251;SDS011;10784;50.578;17.878;2022-12-07T15:16:40;3.47;;;2.60;;
21251;SDS011;10784;50.578;17.878;2022-12-07T15:19:34;8.75;;;3.97;;
21251;SDS011;10784;50.578;17.878;2022-12-07T15:22:07;5.10;;;3.17;;
21251;SDS011;10784;50.578;17.878;2022-12-07T15:24:40;5.47;;;2.78;;
21251;SDS011;10784;50.578;17.878;2022-12-07T15:27:14;5.70;;;2.88;;
21251;SDS011;10784;50.578;17.878;2022-12-07T15:29:47;4.13;;;3.13;;
21251;SDS011;10784;50.578;17.878;2022-12-07T15:32:19;5.38;;;2.72;;
21251;SDS011;10784;50.578;17.878;2022-12-07T15:34:52;4.82;;;2.75;;
21251;SDS011;10784;50.578;17.878;2022-12-07T15:37:25;7.32;;;3.35;;
21251;SDS011;10784;50.578;17.878;2022-12-07T15:39:58;8.98;;;3.25;;
21251;SDS011;10784;50.578;17.878;2022-12-07T15:42:38;7.20;;;3.30;;
21251;SDS011;10784;50.578;17.878;2022-12-07T15:45:11;5.57;;;3.15;;
21251;SDS011;10784;50.578;17.878;2022-12-07T15:47:45;6.55;;;3.72;;
21251;SDS011;10784;50.578;17.878;2022-12-07T15:50:38;7.18;;;3.70;;
21251;SDS011;10784;50.578;17.878;2022-12-07T15:53:11;7.38;;;3.53;;
21251;SDS011;10784;50.578;17.878;2022-12-07T15:55:44;4.20;;;3.05;;
21251;SDS011;10784;50.578;17.878;2022-12-07T15:58:17;8.15;;;3.65;;
21251;SDS011;10784;50.578;17.878;2022-12-07T16:00:50;6.95;;;3.35;;
21251;SDS011;10784;50.578;17.878;2022-12-07T16:03:22;4.05;;;3.08;;
21251;SDS011;10784;50.578;17.878;2022-12-07T16:05:55;5.32;;;3.47;;
21251;SDS011;10784;50.578;17.878;2022-12-07T16:08:28;3.22;;;2.95;;
21251;SDS011;10784;50.578;17.878;2022-12-07T16:11:07;8.25;;;3.33;;
21251;SDS011;10784;50.578;17.878;2022-12-07T16:13:40;5.75;;;3.15;;
21251;SDS011;10784;50.578;17.878;2022-12-07T16:16:14;3.78;;;2.72;;
21251;SDS011;10784;50.578;17.878;2022-12-07T16:18:47;7.80;;;3.47;;
21251;SDS011;10784;50.578;17.878;2022-12-07T16:21:21;4.15;;;3.22;;
21251;SDS011;10784;50.578;17.878;2022-12-07T16:23:57;3.63;;;2.38;;
21251;SDS011;10784;50.578;17.878;2022-12-07T16:26:31;6.72;;;3.25;;
21251;SDS011;10784;50.578;17.878;2022-12-07T16:29:03;6.30;;;2.83;;
21251;SDS011;10784;50.578;17.878;2022-12-07T16:31:36;9.32;;;4.57;;
21251;SDS011;10784;50.578;17.878;2022-12-07T16:34:09;7.40;;;4.35;;
21251;SDS011;10784;50.578;17.878;2022-12-07T16:36:42;18.95;;;4.88;;
21251;SDS011;10784;50.578;17.878;2022-12-07T16:39:35;11.30;;;3.92;;
21251;SDS011;10784;50.578;17.878;2022-12-07T16:42:08;7.30;;;3.70;;
21251;SDS011;10784;50.578;17.878;2022-12-07T16:44:40;6.50;;;4.15;;
21251;SDS011;10784;50.578;17.878;2022-12-07T16:47:14;6.93;;;4.03;;
21251;SDS011;10784;50.578;17.878;2022-12-07T16:49:46;8.73;;;3.03;;
21251;SDS011;10784;50.578;17.878;2022-12-07T16:52:20;5.78;;;3.38;;
21251;SDS011;10784;50.578;17.878;2022-12-07T16:54:53;5.82;;;4.18;;
21251;SDS011;10784;50.578;17.878;2022-12-07T16:57:26;17.80;;;6.35;;
21251;SDS011;10784;50.578;17.878;2022-12-07T16:59:58;8.43;;;4.60;;
21251;SDS011;10784;50.578;17.878;2022-12-07T17:02:32;11.45;;;5.15;;
21251;SDS011;10784;50.578;17.878;2022-12-07T17:05:06;16.58;;;6.55;;
21251;SDS011;10784;50.578;17.878;2022-12-07T17:07:39;16.80;;;6.30;;
21251;SDS011;10784;50.578;17.878;2022-12-07T17:10:11;10.60;;;4.40;;
21251;SDS011;10784;50.578;17.878;2022-12-07T17:12:44;20.55;;;9.50;;
21251;SDS011;10784;50.578;17.878;2022-12-07T17:15:17;15.55;;;7.20;;
21251;SDS011;10784;50.578;17.878;2022-12-07T17:17:51;12.70;;;6.05;;
21251;SDS011;10784;50.578;17.878;2022-12-07T17:20:25;15.60;;;7.28;;
21251;SDS011;10784;50.578;17.878;2022-12-07T17:22:59;12.65;;;6.00;;
21251;SDS011;10784;50.578;17.878;2022-12-07T17:25:31;13.02;;;5.97;;
21251;SDS011;10784;50.578;17.878;2022-12-07T17:28:04;9.95;;;6.50;;
21251;SDS011;10784;50.578;17.878;2022-12-07T17:53:50;38.78;;;15.75;;
21251;SDS011;10784;50.578;17.878;2022-12-07T17:56:23;28.67;;;10.60;;
21251;SDS011;10784;50.578;17.878;2022-12-07T17:59:00;27.27;;;9.82;;
21251;SDS011;10784;50.578;17.878;2022-12-07T18:01:33;19.40;;;7.07;;
21251;SDS011;10784;50.578;17.878;2022-12-07T18:04:06;15.50;;;8.90;;
21251;SDS011;10784;50.578;17.878;2022-12-07T18:06:40;23.52;;;9.45;;
21251;SDS011;10784;50.578;17.878;2022-12-07T18:09:12;19.75;;;8.65;;
21251;SDS011;10784;50.578;17.878;2022-12-07T18:11:45;31.10;;;10.60;;
21251;SDS011;10784;50.578;17.878;2022-12-07T18:14:18;28.10;;;7.43;;
21251;SDS011;10784;50.578;17.878;2022-12-07T18:16:51;29.30;;;10.30;;
21251;SDS011;10784;50.578;17.878;2022-12-07T18:19:23;18.73;;;9.07;;
21251;SDS011;10784;50.578;17.878;2022-12-07T18:21:56;18.50;;;9.13;;
21251;SDS011;10784;50.578;17.878;2022-12-07T18:24:29;28.38;;;11.95;;
21251;SDS011;10784;50.578;17.878;2022-12-07T18:27:08;23.20;;;8.70;;
21251;SDS011;10784;50.578;17.878;2022-12-07T18:29:41;18.38;;;7.82;;
21251;SDS011;10784;50.578;17.878;2022-12-07T18:32:14;30.40;;;9.48;;
21251;SDS011;10784;50.578;17.878;2022-12-07T18:34:47;18.85;;;8.75;;
21251;SDS011;10784;50.578;17.878;2022-12-07T18:37:19;21.48;;;10.13;;
21251;SDS011;10784;50.578;17.878;2022-12-07T18:39:52;19.90;;;10.07;;
21251;SDS011;10784;50.578;17.878;2022-12-07T18:42:29;10.98;;;6.72;;
21251;SDS011;10784;50.578;17.878;2022-12-07T18:45:02;24.60;;;9.23;;
21251;SDS011;10784;50.578;17.878;2022-12-07T18:47:35;27.75;;;7.55;;
21251;SDS011;10784;50.578;17.878;2022-12-07T18:50:08;27.83;;;14.02;;
21251;SDS011;10784;50.578;17.878;2022-12-07T18:52:42;20.13;;;8.75;;
21251;SDS011;10784;50.578;17.878;2022-12-07T18:55:14;34.50;;;12.63;;
21251;SDS011;10784;50.578;17.878;2022-12-07T18:57:47;25.73;;;10.00;;
21251;SDS011;10784;50.578;17.878;2022-12-07T19:00:20;29.17;;;11.82;;
21251;SDS011;10784;50.578;17.878;2022-12-07T19:02:55;25.88;;;9.18;;
21251;SDS011;10784;50.578;17.878;2022-12-07T19:05:28;24.02;;;8.98;;
21251;SDS011;10784;50.578;17.878;2022-12-07T19:08:01;22.40;;;8.15;;
21251;SDS011;10784;50.578;17.878;2022-12-07T19:10:33;19.27;;;8.35;;
21251;SDS011;10784;50.578;17.878;2022-12-07T19:13:07;25.75;;;9.32;;
21251;SDS011;10784;50.578;17.878;2022-12-07T19:15:39;20.90;;;11.38;;
21251;SDS011;10784;50.578;17.878;2022-12-07T19:18:12;23.83;;;9.32;;
21251;SDS011;10784;50.578;17.878;2022-12-07T19:20:45;23.00;;;7.63;;
21251;SDS011;10784;50.578;17.878;2022-12-07T19:23:18;10.55;;;5.75;;
21251;SDS011;10784;50.578;17.878;2022-12-07T19:25:53;12.82;;;5.75;;
21251;SDS011;10784;50.578;17.878;2022-12-07T19:28:26;14.63;;;6.45;;
21251;SDS011;10784;50.578;17.878;2022-12-07T19:30:58;11.00;;;5.57;;
21251;SDS011;10784;50.578;17.878;2022-12-07T19:33:31;9.38;;;4.97;;
21251;SDS011;10784;50.578;17.878;2022-12-07T19:36:04;12.30;;;5.45;;
21251;SDS011;10784;50.578;17.878;2022-12-07T19:38:37;9.63;;;4.95;;
21251;SDS011;10784;50.578;17.878;2022-12-07T19:41:11;15.32;;;5.43;;
21251;SDS011;10784;50.578;17.878;2022-12-07T19:44:06;14.65;;;6.57;;
21251;SDS011;10784;50.578;17.878;2022-12-07T19:46:40;12.70;;;5.25;;
21251;SDS011;10784;50.578;17.878;2022-12-07T19:49:14;8.00;;;4.82;;
21251;SDS011;10784;50.578;17.878;2022-12-07T19:51:49;13.45;;;4.07;;
21251;SDS011;10784;50.578;17.878;2022-12-07T19:54:23;14.60;;;5.72;;
21251;SDS011;10784;50.578;17.878;2022-12-07T19:56:57;21.73;;;6.15;;
21251;SDS011;10784;50.578;17.878;2022-12-07T19:59:30;20.27;;;6.57;;
21251;SDS011;10784;50.578;17.878;2022-12-07T20:02:03;11.43;;;4.60;;
21251;SDS011;10784;50.578;17.878;2022-12-07T20:04:36;17.10;;;4.82;;
21251;SDS011;10784;50.578;17.878;2022-12-07T20:07:09;13.20;;;4.07;;
21251;SDS011;10784;50.578;17.878;2022-12-07T20:09:42;7.13;;;3.22;;
21251;SDS011;10784;50.578;17.878;2022-12-07T20:12:15;16.90;;;5.85;;
21251;SDS011;10784;50.578;17.878;2022-12-07T20:15:06;12.30;;;6.07;;
21251;SDS011;10784;50.578;17.878;2022-12-07T20:17:39;15.30;;;5.22;;
21251;SDS011;10784;50.578;17.878;2022-12-07T20:20:12;23.15;;;7.95;;
21251;SDS011;10784;50.578;17.878;2022-12-07T20:22:44;58.53;;;18.50;;
21251;SDS011;10784;50.578;17.878;2022-12-07T20:25:17;22.52;;;5.75;;
21251;SDS011;10784;50.578;17.878;2022-12-07T20:27:51;25.20;;;8.30;;
21251;SDS011;10784;50.578;17.878;2022-12-07T20:30:24;16.08;;;5.93;;
21251;SDS011;10784;50.578;17.878;2022-12-07T20:32:57;9.55;;;4.88;;
21251;SDS011;10784;50.578;17.878;2022-12-07T20:35:30;55.83;;;15.25;;
21251;SDS011;10784;50.578;17.878;2022-12-07T20:38:02;35.95;;;14.45;;
21251;SDS011;10784;50.578;17.878;2022-12-07T20:40:36;19.25;;;5.25;;
21251;SDS011;10784;50.578;17.878;2022-12-07T20:43:09;12.20;;;5.97;;
21251;SDS011;10784;50.578;17.878;2022-12-07T20:45:42;15.52;;;4.97;;
21251;SDS011;10784;50.578;17.878;2022-12-07T20:48:15;7.78;;;4.10;;
21251;SDS011;10784;50.578;17.878;2022-12-07T20:50:49;10.65;;;3.72;;
21251;SDS011;10784;50.578;17.878;2022-12-07T20:53:21;8.65;;;2.92;;
21251;SDS011;10784;50.578;17.878;2022-12-07T20:55:54;10.20;;;4.28;;
21251;SDS011;10784;50.578;17.878;2022-12-07T20:58:27;11.73;;;4.00;;
21251;SDS011;10784;50.578;17.878;2022-12-07T21:01:01;15.70;;;4.70;;
21251;SDS011;10784;50.578;17.878;2022-12-07T21:03:34;8.73;;;4.15;;
21251;SDS011;10784;50.578;17.878;2022-12-07T21:06:07;8.00;;;4.88;;
21251;SDS011;10784;50.578;17.878;2022-12-07T21:08:44;11.88;;;4.22;;
21251;SDS011;10784;50.578;17.878;2022-12-07T21:11:17;32.08;;;8.38;;
21251;SDS011;10784;50.578;17.878;2022-12-07T21:13:50;17.38;;;7.50;;
21251;SDS011;10784;50.578;17.878;2022-12-07T21:16:27;11.02;;;4.00;;
21251;SDS011;10784;50.578;17.878;2022-12-07T21:19:01;8.50;;;5.22;;
21251;SDS011;10784;50.578;17.878;2022-12-07T21:21:34;13.77;;;4.57;;
21251;SDS011;10784;50.578;17.878;2022-12-07T21:24:06;13.02;;;4.88;;
21251;SDS011;10784;50.578;17.878;2022-12-07T21:26:40;9.57;;;4.50;;
21251;SDS011;10784;50.578;17.878;2022-12-07T21:29:12;20.02;;;7.07;;
21251;SDS011;10784;50.578;17.878;2022-12-07T21:31:46;14.82;;;8.18;;
21251;SDS011;10784;50.578;17.878;2022-12-07T21:34:18;21.73;;;7.15;;
21251;SDS011;10784;50.578;17.878;2022-12-07T21:36:51;25.63;;;6.75;;
21251;SDS011;10784;50.578;17.878;2022-12-07T21:39:24;11.93;;;5.55;;
21251;SDS011;10784;50.578;17.878;2022-12-07T21:41:57;13.50;;;5.65;;
21251;SDS011;10784;50.578;17.878;2022-12-07T21:44:29;15.98;;;6.28;;
21251;SDS011;10784;50.578;17.878;2022-12-07T21:47:02;22.33;;;7.20;;
21251;SDS011;10784;50.578;17.878;2022-12-07T21:49:35;27.88;;;8.70;;
21251;SDS011;10784;50.578;17.878;2022-12-07T21:52:08;15.00;;;5.78;;
21251;SDS011;10784;50.578;17.878;2022-12-07T21:54:40;19.80;;;5.80;;
21251;SDS011;10784;50.578;17.878;2022-12-07T21:57:14;13.35;;;5.60;;
21251;SDS011;10784;50.578;17.878;2022-12-07T21:59:47;13.02;;;7.43;;
21251;SDS011;10784;50.578;17.878;2022-12-07T22:02:20;14.77;;;5.55;;
21251;SDS011;10784;50.578;17.878;2022-12-07T22:04:52;10.43;;;5.30;;
21251;SDS011;10784;50.578;17.878;2022-12-07T22:07:25;6.72;;;4.43;;
21251;SDS011;10784;50.578;17.878;2022-12-07T22:09:58;9.10;;;4.28;;
21251;SDS011;10784;50.578;17.878;2022-12-07T22:12:31;7.35;;;4.70;;
21251;SDS011;10784;50.578;17.878;2022-12-07T22:15:03;9.68;;;4.80;;
21251;SDS011;10784;50.578;17.878;2022-12-07T22:17:41;7.95;;;4.78;;
21251;SDS011;10784;50.578;17.878;2022-12-07T22:20:14;15.38;;;6.28;;
21251;SDS011;10784;50.578;17.878;2022-12-07T22:22:47;15.80;;;5.88;;
21251;SDS011;10784;50.578;17.878;2022-12-07T22:25:20;8.35;;;5.93;;
21251;SDS011;10784;50.578;17.878;2022-12-07T22:27:53;21.98;;;6.82;;
21251;SDS011;10784;50.578;17.878;2022-12-07T22:30:26;7.28;;;4.38;;
21251;SDS011;10784;50.578;17.878;2022-12-07T22:32:59;10.45;;;4.80;;
21251;SDS011;10784;50.578;17.878;2022-12-07T22:35:32;11.38;;;4.78;;
21251;SDS011;10784;50.578;17.878;2022-12-07T22:38:05;13.35;;;5.75;;
21251;SDS011;10784;50.578;17.878;2022-12-07T22:40:45;18.83;;;6.95;;
21251;SDS011;10784;50.578;17.878;2022-12-07T22:43:18;21.83;;;6.75;;
21251;SDS011;10784;50.578;17.878;2022-12-07T22:45:57;12.70;;;5.53;;
21251;SDS011;10784;50.578;17.878;2022-12-07T22:48:30;16.08;;;6.03;;
21251;SDS011;10784;50.578;17.878;2022-12-07T22:51:03;13.65;;;5.72;;
21251;SDS011;10784;50.578;17.878;2022-12-07T22:53:36;11.25;;;5.32;;
21251;SDS011;10784;50.578;17.878;2022-12-07T22:56:08;10.70;;;5.53;;
21251;SDS011;10784;50.578;17.878;2022-12-07T22:58:41;10.48;;;5.55;;
21251;SDS011;10784;50.578;17.878;2022-12-07T23:01:14;11.30;;;5.57;;
21251;SDS011;10784;50.578;17.878;2022-12-07T23:03:48;12.98;;;6.53;;
21251;SDS011;10784;50.578;17.878;2022-12-07T23:06:22;12.35;;;5.03;;
21251;SDS011;10784;50.578;17.878;2022-12-07T23:08:56;11.77;;;4.57;;
21251;SDS011;10784;50.578;17.878;2022-12-07T23:11:30;12.95;;;4.40;;
21251;SDS011;10784;50.578;17.878;2022-12-07T23:14:24;14.18;;;6.03;;
21251;SDS011;10784;50.578;17.878;2022-12-07T23:16:57;9.68;;;4.13;;
21251;SDS011;10784;50.578;17.878;2022-12-07T23:19:31;9.48;;;3.97;;
21251;SDS011;10784;50.578;17.878;2022-12-07T23:22:03;8.80;;;3.53;;
21251;SDS011;10784;50.578;17.878;2022-12-07T23:24:36;10.77;;;4.53;;
21251;SDS011;10784;50.578;17.878;2022-12-07T23:27:09;9.98;;;4.47;;
21251;SDS011;10784;50.578;17.878;2022-12-07T23:29:42;16.27;;;5.53;;
21251;SDS011;10784;50.578;17.878;2022-12-07T23:32:15;7.90;;;4.22;;
21251;SDS011;10784;50.578;17.878;2022-12-07T23:34:48;22.77;;;6.68;;
21251;SDS011;10784;50.578;17.878;2022-12-07T23:37:20;17.58;;;5.57;;
21251;SDS011;10784;50.578;17.878;2022-12-07T23:39:53;6.70;;;5.00;;
21251;SDS011;10784;50.578;17.878;2022-12-07T23:42:26;12.07;;;4.20;;
21251;SDS011;10784;50.578;17.878;2022-12-07T23:44:59;10.40;;;4.20;;
21251;SDS011;10784;50.578;17.878;2022-12-07T23:47:32;10.15;;;3.83;;
21251;SDS011;10784;50.578;17.878;2022-12-07T23:50:05;7.80;;;4.05;;
21251;SDS011;10784;50.578;17.878;2022-12-07T23:52:37;5.80;;;3.50;;
21251;SDS011;10784;50.578;17.878;2022-12-07T23:55:10;14.52;;;4.20;;
21251;SDS011;10784;50.578;17.878;2022-12-07T23:57:43;8.10;;;4.32;;
